createdAt,value
2023-01-17T00:00:23.655Z,0.50
2023-01-17T00:02:57.618Z,0.63
2023-01-17T00:05:40.559Z,0.50
2023-01-17T00:08:29.648Z,0.47
2023-01-17T00:11:00.741Z,0.50
2023-01-17T00:13:31.497Z,0.40
2023-01-17T00:16:03.433Z,0.70
2023-01-17T00:18:35.580Z,0.65
2023-01-17T00:21:18.726Z,0.60
2023-01-17T00:24:04.414Z,1.38
2023-01-17T00:26:35.447Z,0.60
2023-01-17T00:29:03.455Z,0.95
2023-01-17T00:31:31.189Z,0.70
2023-01-17T00:33:58.851Z,0.80
2023-01-17T00:36:26.672Z,0.90
2023-01-17T00:38:57.003Z,0.70
2023-01-17T00:41:24.587Z,1.13
2023-01-17T00:44:07.480Z,0.45
2023-01-17T00:46:50.403Z,0.80
2023-01-17T00:49:33.248Z,1.17
2023-01-17T00:52:16.961Z,0.60
2023-01-17T00:55:02.834Z,0.80
2023-01-17T00:57:46.017Z,0.75
2023-01-17T01:00:30.098Z,0.82
2023-01-17T01:03:13.094Z,1.10
2023-01-17T01:05:57.905Z,0.82
2023-01-17T01:08:42.661Z,1.30
2023-01-17T01:11:29.547Z,1.95
2023-01-17T01:14:14.335Z,1.17
2023-01-17T01:16:57.487Z,0.60
2023-01-17T01:19:41.207Z,0.40
2023-01-17T01:22:28.118Z,0.55
2023-01-17T01:25:10.939Z,0.50
2023-01-17T01:27:56.494Z,0.60
2023-01-17T01:30:42.097Z,1.02
2023-01-17T01:33:19.965Z,0.65
2023-01-17T01:35:53.868Z,1.02
2023-01-17T01:38:27.125Z,1.13
2023-01-17T01:40:58.886Z,1.00
2023-01-17T01:43:51.904Z,1.50
2023-01-17T01:46:29.909Z,1.08
2023-01-17T01:49:05.425Z,1.98
2023-01-17T01:51:52.004Z,1.00
2023-01-17T01:54:25.296Z,2.13
2023-01-17T01:56:56.951Z,2.58
2023-01-17T01:59:30.915Z,2.70
2023-01-17T02:02:01.554Z,1.27
2023-01-17T02:04:32.309Z,1.80
2023-01-17T02:07:11.764Z,2.95
2023-01-17T02:09:42.237Z,1.58
2023-01-17T02:12:13.866Z,2.03
2023-01-17T02:14:46.922Z,0.93
2023-01-17T02:17:30.111Z,1.77
2023-01-17T02:20:39.764Z,1.40
2023-01-17T02:23:51.811Z,1.63
2023-01-17T02:26:40.249Z,1.33
2023-01-17T02:29:35.601Z,1.20
2023-01-17T02:32:14.458Z,1.35
2023-01-17T02:34:54.095Z,1.52
2023-01-17T02:37:33.926Z,1.50
2023-01-17T02:40:11.653Z,1.40
2023-01-17T02:42:49.649Z,1.20
2023-01-17T02:45:22.292Z,1.42
2023-01-17T02:47:55.577Z,1.70
2023-01-17T02:50:30.142Z,1.42
2023-01-17T02:53:18.976Z,1.30
2023-01-17T02:56:07.936Z,1.05
2023-01-17T02:59:10.005Z,2.13
2023-01-17T03:02:05.247Z,1.75
2023-01-17T03:04:48.239Z,2.00
2023-01-17T03:07:22.459Z,1.77
2023-01-17T03:12:38.664Z,1.27
2023-01-17T03:15:13.657Z,1.38
2023-01-17T03:17:47.765Z,1.42
2023-01-17T03:20:22.634Z,1.95
2023-01-17T03:22:53.272Z,1.67
2023-01-17T03:25:37.153Z,2.03
2023-01-17T03:28:09.309Z,0.82
2023-01-17T03:30:39.918Z,0.90
2023-01-17T03:33:10.861Z,0.90
2023-01-17T03:35:47.726Z,1.27
2023-01-17T03:38:19.547Z,0.85
2023-01-17T03:40:49.970Z,1.75
2023-01-17T03:43:25.038Z,1.48
2023-01-17T03:45:55.667Z,1.08
2023-01-17T03:48:26.317Z,0.90
2023-01-17T03:51:00.165Z,1.42
2023-01-17T03:53:32.772Z,0.80
2023-01-17T03:56:03.453Z,0.80
2023-01-17T03:58:35.603Z,0.95
2023-01-17T04:01:06.183Z,0.82
2023-01-17T04:03:37.591Z,1.25
2023-01-17T04:06:11.333Z,2.00
2023-01-17T04:08:47.394Z,1.08
2023-01-17T04:11:17.939Z,1.35
2023-01-17T04:13:55.287Z,1.27
2023-01-17T04:16:34.860Z,1.52
2023-01-17T04:19:07.982Z,1.38
2023-01-17T04:21:41.053Z,1.25
2023-01-17T04:24:11.649Z,0.95
2023-01-17T04:26:42.632Z,1.05
2023-01-17T04:29:13.038Z,1.77
2023-01-17T04:31:44.637Z,0.90
2023-01-17T04:34:18.704Z,0.70
2023-01-17T04:36:53.136Z,0.80
2023-01-17T04:39:23.702Z,0.90
2023-01-17T04:41:54.263Z,1.70
2023-01-17T04:44:24.777Z,0.98
2023-01-17T04:46:55.347Z,0.50
2023-01-17T04:49:27.306Z,0.82
2023-01-17T04:52:00.557Z,1.00
2023-01-17T04:54:31.035Z,1.42
2023-01-17T04:57:01.531Z,0.70
2023-01-17T04:59:36.633Z,0.60
2023-01-17T05:02:07.342Z,0.50
2023-01-17T05:04:37.829Z,0.50
2023-01-17T05:07:18.465Z,0.75
2023-01-17T05:09:53.325Z,1.30
2023-01-17T05:12:24.747Z,0.55
2023-01-17T05:14:55.838Z,0.38
2023-01-17T05:17:29.647Z,0.50
2023-01-17T05:20:09.173Z,1.05
2023-01-17T05:22:43.189Z,0.40
2023-01-17T05:25:17.986Z,1.23
2023-01-17T05:27:48.423Z,0.88
2023-01-17T05:30:21.949Z,0.55
2023-01-17T05:32:57.831Z,0.40
2023-01-17T05:35:30.344Z,0.65
2023-01-17T05:38:03.815Z,0.88
2023-01-17T05:40:36.013Z,0.30
2023-01-17T05:43:06.708Z,0.98
2023-01-17T05:45:37.647Z,0.30
2023-01-17T05:48:10.028Z,0.40
2023-01-17T05:50:41.191Z,0.30
2023-01-17T05:53:16.545Z,0.65
2023-01-17T05:55:47.843Z,0.25
2023-01-17T05:58:21.059Z,0.35
2023-01-17T06:00:52.448Z,0.50
2023-01-17T06:03:23.645Z,0.30
2023-01-17T06:05:54.498Z,0.30
2023-01-17T06:08:27.617Z,0.47
2023-01-17T06:11:00.148Z,0.70
2023-01-17T06:13:30.735Z,0.80
2023-01-17T06:16:04.587Z,0.50
2023-01-17T06:18:36.665Z,0.88
2023-01-17T06:21:07.219Z,1.02
2023-01-17T06:23:47.036Z,0.68
2023-01-17T06:26:17.499Z,0.52
2023-01-17T06:28:52.678Z,0.60
2023-01-17T06:31:29.464Z,0.38
2023-01-17T06:33:59.974Z,0.50
2023-01-17T06:36:37.952Z,0.70
2023-01-17T06:39:14.984Z,0.90
2023-01-17T06:41:45.867Z,0.30
2023-01-17T06:44:16.331Z,0.22
2023-01-17T06:46:50.769Z,0.98
2023-01-17T06:51:58.481Z,0.55
2023-01-17T06:54:37.946Z,0.80
2023-01-17T06:57:11.008Z,1.75
2023-01-17T06:59:41.436Z,0.43
2023-01-17T07:02:13.599Z,2.03
2023-01-17T07:04:45.635Z,1.08
2023-01-17T07:07:16.898Z,0.70
2023-01-17T07:09:50.249Z,0.70
2023-01-17T07:12:20.692Z,0.47
2023-01-17T07:14:51.214Z,1.55
2023-01-17T07:17:29.361Z,0.40
2023-01-17T07:20:02.606Z,0.60
2023-01-17T07:22:33.108Z,1.75
2023-01-17T07:25:06.603Z,0.50
2023-01-17T07:27:45.290Z,0.77
2023-01-17T07:30:18.708Z,0.80
2023-01-17T07:32:56.362Z,0.68
2023-01-17T07:35:27.943Z,1.52
2023-01-17T07:37:58.739Z,1.35
2023-01-17T07:40:33.507Z,0.60
2023-01-17T07:43:13.706Z,0.50
2023-01-17T07:45:46.420Z,0.63
2023-01-17T07:48:19.400Z,1.17
2023-01-17T07:50:57.332Z,0.73
2023-01-17T07:53:30.297Z,1.20
2023-01-17T07:56:10.375Z,1.35
2023-01-17T07:58:42.047Z,1.40
2023-01-17T08:01:16.288Z,0.77
2023-01-17T08:06:23.757Z,1.33
2023-01-17T08:08:57.087Z,1.15
2023-01-17T08:11:33.137Z,0.73
2023-01-17T08:14:11.894Z,1.20
2023-01-17T08:16:43.964Z,2.88
2023-01-17T08:19:22.361Z,2.15
2023-01-17T08:21:54.809Z,2.63
2023-01-17T08:24:25.471Z,1.17
2023-01-17T08:26:58.547Z,1.10
2023-01-17T08:29:29.859Z,2.90
2023-01-17T08:32:03.311Z,0.63
2023-01-17T08:34:41.436Z,3.15
2023-01-17T08:37:12.852Z,0.57
2023-01-17T08:39:46.191Z,1.77
2023-01-17T08:42:19.635Z,3.70
2023-01-17T08:45:12.310Z,1.23
2023-01-17T08:47:43.940Z,1.20
2023-01-17T08:50:15.174Z,0.50
2023-01-17T08:52:47.204Z,1.20
2023-01-17T08:55:19.874Z,1.67
2023-01-17T08:57:55.337Z,4.38
2023-01-17T09:00:28.557Z,2.58
2023-01-17T09:02:59.719Z,4.78
2023-01-17T09:05:36.776Z,3.50
2023-01-17T09:08:08.051Z,2.40
2023-01-17T09:10:55.024Z,1.30
2023-01-17T09:13:28.326Z,2.45
2023-01-17T09:16:02.521Z,0.52
2023-01-17T09:18:34.579Z,0.93
2023-01-17T09:21:13.213Z,1.27
2023-01-17T09:23:44.627Z,2.35
2023-01-17T09:26:21.628Z,3.22
2023-01-17T09:28:55.523Z,0.50
2023-01-17T09:31:28.609Z,2.25
2023-01-17T09:34:00.575Z,4.50
2023-01-17T09:36:38.872Z,3.97
2023-01-17T09:39:17.649Z,2.60
2023-01-17T09:41:54.819Z,7.70
2023-01-17T09:44:31.930Z,2.45
2023-01-17T09:47:10.344Z,1.95
2023-01-17T09:49:45.016Z,3.58
2023-01-17T09:52:17.758Z,1.05
2023-01-17T09:54:50.469Z,2.67
2023-01-17T09:57:39.597Z,1.95
2023-01-17T10:00:33.337Z,3.60
2023-01-17T10:03:23.432Z,2.22
2023-01-17T10:06:24.902Z,2.33
2023-01-17T10:09:12.448Z,2.60
2023-01-17T10:11:58.765Z,2.10
2023-01-17T10:15:05.805Z,2.70
2023-01-17T10:17:49.329Z,2.30
2023-01-17T10:20:47.718Z,2.15
2023-01-17T10:23:58.897Z,3.22
2023-01-17T10:26:30.335Z,2.08
2023-01-17T10:29:07.670Z,2.75
2023-01-17T10:31:47.323Z,1.27
2023-01-17T10:34:28.419Z,2.92
2023-01-17T10:37:07.313Z,3.20
2023-01-17T10:39:39.571Z,1.38
2023-01-17T10:42:19.865Z,1.92
2023-01-17T10:45:00.794Z,2.20
2023-01-17T10:47:33.951Z,1.38
2023-01-17T10:50:11.737Z,3.65
2023-01-17T10:52:55.669Z,1.00
2023-01-17T10:55:39.111Z,1.58
2023-01-17T10:58:13.707Z,1.08
2023-01-17T11:03:20.872Z,2.30
2023-01-17T11:06:21.548Z,3.03
2023-01-17T11:08:58.574Z,0.85
2023-01-17T11:11:34.280Z,1.17
2023-01-17T11:14:15.409Z,2.22
2023-01-17T11:16:46.590Z,3.63
2023-01-17T11:19:26.770Z,1.48
2023-01-17T11:22:01.794Z,3.85
2023-01-17T11:24:39.176Z,3.03
2023-01-17T11:27:25.587Z,2.08
2023-01-17T11:30:10.650Z,1.80
2023-01-17T11:32:42.809Z,3.95
2023-01-17T11:35:25.680Z,3.80
2023-01-17T11:38:08.116Z,2.08
2023-01-17T11:40:45.804Z,0.98
2023-01-17T11:43:31.472Z,1.40
2023-01-17T11:46:20.567Z,1.38
2023-01-17T11:48:56.177Z,4.05
2023-01-17T11:51:32.692Z,2.72
2023-01-17T11:54:22.031Z,2.03
2023-01-17T11:57:00.810Z,3.42
2023-01-17T11:59:35.194Z,1.77
2023-01-17T12:05:35.146Z,2.13
2023-01-17T12:08:20.859Z,3.28
2023-01-17T12:11:06.257Z,1.13
2023-01-17T12:14:02.903Z,3.17
2023-01-17T12:16:59.805Z,2.20
2023-01-17T12:19:45.701Z,1.92
2023-01-17T12:22:33.859Z,2.65
2023-01-17T12:25:26.624Z,2.15
2023-01-17T12:28:30.673Z,2.58
2023-01-17T12:31:20.982Z,0.75
2023-01-17T12:33:56.426Z,1.63
2023-01-17T12:36:49.678Z,1.60
2023-01-17T12:39:26.111Z,6.90
2023-01-17T12:42:03.879Z,1.63
2023-01-17T12:44:54.309Z,1.52
2023-01-17T12:47:28.131Z,2.90
2023-01-17T12:50:10.453Z,1.95
2023-01-17T12:52:56.187Z,3.95
2023-01-17T12:55:37.756Z,3.03
2023-01-17T12:58:16.006Z,1.95
2023-01-17T13:01:15.839Z,0.55
2023-01-17T13:04:19.032Z,0.65
2023-01-17T13:07:03.558Z,1.35
2023-01-17T13:09:40.580Z,3.08
2023-01-17T13:12:16.365Z,2.00
2023-01-17T13:14:49.083Z,2.90
2023-01-17T13:17:35.645Z,1.90
2023-01-17T13:20:22.714Z,1.85
2023-01-17T13:22:57.258Z,0.73
2023-01-17T13:25:57.118Z,2.03
2023-01-17T13:28:39.266Z,2.97
2023-01-17T13:31:24.034Z,1.83
2023-01-17T13:34:35.123Z,5.07
2023-01-17T13:37:30.312Z,0.95
2023-01-17T13:40:31.765Z,3.22
2023-01-17T13:43:04.893Z,3.85
2023-01-17T13:45:37.737Z,3.50
2023-01-17T13:48:33.845Z,3.17
2023-01-17T13:51:05.476Z,2.33
2023-01-17T13:54:04.568Z,2.03
2023-01-17T13:56:37.723Z,1.88
2023-01-17T13:59:30.802Z,1.40
2023-01-17T14:02:01.883Z,2.72
2023-01-17T14:05:02.838Z,1.90
2023-01-17T14:07:36.683Z,2.95
2023-01-17T14:10:34.765Z,1.30
2023-01-17T14:13:07.772Z,1.73
2023-01-17T14:15:52.558Z,1.20
2023-01-17T14:18:43.778Z,1.60
2023-01-17T14:21:22.760Z,2.38
2023-01-17T14:24:08.222Z,6.93
2023-01-17T14:26:58.997Z,4.00
2023-01-17T14:30:00.473Z,1.48
2023-01-17T14:32:34.485Z,2.80
2023-01-17T14:35:09.290Z,1.50
2023-01-17T14:37:57.710Z,3.60
2023-01-17T14:40:30.950Z,5.30
2023-01-17T14:43:10.295Z,1.98
2023-01-17T14:45:41.598Z,1.05
2023-01-17T14:48:21.908Z,5.38
2023-01-17T14:50:54.272Z,2.03
2023-01-17T14:53:28.463Z,2.55
2023-01-17T14:58:36.424Z,2.47
2023-01-17T15:01:13.795Z,3.85
2023-01-17T15:03:49.106Z,2.53
2023-01-17T15:06:40.170Z,1.30
2023-01-17T15:09:13.831Z,2.85
2023-01-17T15:11:44.295Z,2.28
2023-01-17T15:14:24.235Z,3.45
2023-01-17T15:17:12.829Z,2.75
2023-01-17T15:19:47.751Z,2.33
2023-01-17T15:22:20.526Z,1.95
2023-01-17T15:24:52.509Z,1.50
2023-01-17T15:27:25.079Z,2.05
2023-01-17T15:30:02.335Z,2.42
2023-01-17T15:32:35.137Z,1.90
2023-01-17T15:35:08.305Z,1.65
2023-01-17T15:37:41.850Z,2.15
2023-01-17T15:40:20.904Z,1.45
2023-01-17T15:42:56.572Z,3.33
2023-01-17T15:45:32.427Z,2.53
2023-01-17T15:48:32.762Z,1.67
2023-01-17T15:51:03.343Z,2.95
2023-01-17T15:53:36.450Z,2.60
2023-01-17T15:56:26.431Z,1.33
2023-01-17T15:58:57.026Z,2.22
2023-01-17T16:01:31.740Z,2.67
2023-01-17T16:04:05.532Z,2.78
2023-01-17T16:06:45.701Z,2.83
2023-01-17T16:09:24.917Z,2.22
2023-01-17T16:11:56.017Z,4.15
2023-01-17T16:14:43.960Z,2.50
2023-01-17T16:17:23.565Z,3.33
2023-01-17T16:19:54.185Z,4.70
2023-01-17T16:22:29.256Z,4.07
2023-01-17T16:25:00.753Z,4.90
2023-01-17T16:27:31.166Z,4.15
2023-01-17T16:30:01.674Z,3.88
2023-01-17T16:32:34.846Z,2.50
2023-01-17T16:35:05.903Z,2.33
2023-01-17T16:37:36.277Z,3.88
2023-01-17T16:40:10.027Z,4.28
2023-01-17T16:42:41.907Z,4.07
2023-01-17T16:45:21.180Z,3.30
2023-01-17T16:47:56.444Z,5.28
2023-01-17T16:50:28.323Z,3.65
2023-01-17T16:52:59.107Z,2.67
2023-01-17T16:55:29.657Z,2.60
2023-01-17T16:58:00.746Z,2.53
2023-01-17T17:00:31.173Z,3.80
2023-01-17T17:03:04.224Z,3.13
2023-01-17T17:05:35.362Z,5.95
2023-01-17T17:08:06.126Z,6.13
2023-01-17T17:10:36.555Z,4.03
2023-01-17T17:13:07.977Z,4.55
2023-01-17T17:15:43.963Z,3.25
2023-01-17T17:18:20.247Z,6.72
2023-01-17T17:20:50.827Z,3.28
2023-01-17T17:23:21.812Z,2.55
2023-01-17T17:26:00.893Z,6.05
2023-01-17T17:28:31.419Z,3.33
2023-01-17T17:31:15.243Z,4.82
2023-01-17T17:33:48.330Z,3.72
2023-01-17T17:36:18.880Z,5.43
2023-01-17T17:38:55.329Z,2.85
2023-01-17T17:41:28.993Z,2.75
2023-01-17T17:43:59.458Z,3.78
2023-01-17T17:46:33.948Z,4.20
2023-01-17T17:49:08.012Z,3.33
2023-01-17T17:51:40.440Z,4.15
2023-01-17T17:54:13.311Z,3.13
2023-01-17T17:56:46.581Z,4.20
2023-01-17T17:59:21.162Z,3.63
2023-01-17T18:01:51.843Z,3.47
2023-01-17T18:04:26.620Z,4.13
2023-01-17T18:07:01.656Z,4.40
2023-01-17T18:09:32.243Z,4.00
2023-01-17T18:12:02.948Z,4.88
2023-01-17T18:14:36.336Z,4.57
2023-01-17T18:17:10.296Z,3.73
2023-01-17T18:19:46.129Z,3.70
2023-01-17T18:22:16.506Z,3.25
2023-01-17T18:24:46.975Z,3.13
2023-01-17T18:29:49.377Z,2.63
2023-01-17T18:32:20.438Z,3.10
2023-01-17T18:34:55.518Z,3.22
2023-01-17T18:37:28.179Z,4.80
2023-01-17T18:39:58.634Z,4.82
2023-01-17T18:42:31.376Z,3.25
2023-01-17T18:45:02.038Z,6.95
2023-01-17T18:47:35.833Z,4.68
2023-01-17T18:50:10.470Z,4.05
2023-01-17T18:52:41.472Z,2.70
2023-01-17T18:55:12.142Z,3.42
2023-01-17T18:57:42.549Z,2.70
2023-01-17T19:00:18.803Z,3.90
2023-01-17T19:02:58.298Z,3.90
2023-01-17T19:05:33.899Z,2.95
2023-01-17T19:08:04.354Z,3.25
2023-01-17T19:10:34.980Z,3.55
2023-01-17T19:13:05.485Z,4.20
2023-01-17T19:15:37.814Z,2.58
2023-01-17T19:18:15.080Z,3.10
2023-01-17T19:20:48.171Z,3.30
2023-01-17T19:23:18.769Z,3.22
2023-01-17T19:25:56.136Z,2.75
2023-01-17T19:28:29.076Z,3.65
2023-01-17T19:31:07.471Z,3.47
2023-01-17T19:33:40.583Z,4.55
2023-01-17T19:36:17.130Z,2.42
2023-01-17T19:39:02.903Z,2.60
2023-01-17T19:41:35.612Z,4.75
2023-01-17T19:44:08.448Z,3.80
2023-01-17T19:46:39.826Z,4.90
2023-01-17T19:49:16.450Z,4.93
2023-01-17T19:51:50.310Z,3.38
2023-01-17T19:54:20.915Z,5.10
2023-01-17T19:56:51.605Z,4.32
2023-01-17T19:59:22.683Z,4.47
2023-01-17T20:01:53.449Z,5.50
2023-01-17T20:04:24.011Z,4.95
2023-01-17T20:06:57.324Z,5.72
2023-01-17T20:09:27.732Z,5.07
2023-01-17T20:11:58.220Z,4.60
2023-01-17T20:14:28.859Z,3.05
2023-01-17T20:16:59.331Z,2.38
2023-01-17T20:19:30.093Z,4.38
2023-01-17T20:22:03.316Z,3.88
2023-01-17T20:24:33.932Z,5.15
2023-01-17T20:27:17.784Z,5.45
2023-01-17T20:29:52.505Z,5.80
2023-01-17T20:32:25.324Z,5.20
2023-01-17T20:34:57.212Z,5.15
2023-01-17T20:37:32.465Z,7.13
2023-01-17T20:40:03.137Z,4.78
2023-01-17T20:42:35.932Z,2.90
2023-01-17T20:45:09.440Z,4.15
2023-01-17T20:47:47.223Z,4.75
2023-01-17T20:50:18.479Z,2.53
2023-01-17T20:52:51.654Z,7.00
2023-01-17T20:55:24.346Z,3.80
2023-01-17T20:57:55.396Z,3.50
2023-01-17T21:00:26.613Z,4.15
2023-01-17T21:02:57.142Z,3.25
2023-01-17T21:05:27.862Z,4.82
2023-01-17T21:08:04.180Z,4.53
2023-01-17T21:10:38.568Z,3.10
2023-01-17T21:13:13.032Z,2.53
2023-01-17T21:15:47.309Z,2.55
2023-01-17T21:18:19.659Z,4.13
2023-01-17T21:20:51.080Z,3.63
2023-01-17T21:23:29.302Z,3.75
2023-01-17T21:26:00.533Z,2.13
2023-01-17T21:28:34.212Z,2.47
2023-01-17T21:31:19.801Z,2.80
2023-01-17T21:33:51.236Z,3.50
2023-01-17T21:36:23.241Z,3.35
2023-01-17T21:38:58.234Z,3.50
2023-01-17T21:41:30.173Z,1.73
2023-01-17T21:44:08.058Z,3.45
2023-01-17T21:46:39.495Z,3.47
2023-01-17T21:49:12.222Z,2.60
2023-01-17T21:51:58.704Z,2.47
2023-01-17T21:54:45.807Z,3.17
2023-01-17T21:57:30.474Z,4.03
2023-01-17T22:00:05.129Z,3.72
2023-01-17T22:02:42.726Z,2.70
2023-01-17T22:05:15.024Z,2.80
2023-01-17T22:08:06.099Z,2.92
2023-01-17T22:10:45.763Z,3.15
2023-01-17T22:13:17.043Z,3.90
2023-01-17T22:15:48.334Z,4.40
2023-01-17T22:18:18.772Z,4.70
2023-01-17T22:20:53.255Z,6.25
2023-01-17T22:23:25.277Z,3.42
2023-01-17T22:26:06.921Z,4.07
2023-01-17T22:28:37.566Z,4.32
2023-01-17T22:31:13.492Z,3.65
2023-01-17T22:33:45.633Z,4.32
2023-01-17T22:36:17.933Z,2.67
2023-01-17T22:38:50.953Z,2.22
2023-01-17T22:41:25.845Z,2.20
2023-01-17T22:43:58.728Z,3.75
2023-01-17T22:46:31.063Z,5.38
2023-01-17T22:49:02.176Z,2.33
2023-01-17T22:51:33.138Z,5.15
2023-01-17T22:54:04.035Z,3.40
2023-01-17T22:56:40.019Z,4.10
2023-01-17T22:59:12.147Z,2.50
2023-01-17T23:01:43.259Z,2.08
2023-01-17T23:04:17.286Z,2.13
2023-01-17T23:06:47.678Z,1.98
2023-01-17T23:09:18.880Z,3.85
2023-01-17T23:11:54.641Z,2.97
2023-01-17T23:14:27.269Z,3.25
2023-01-17T23:17:12.022Z,2.05
2023-01-17T23:19:46.671Z,1.60
2023-01-17T23:22:19.445Z,2.13
2023-01-17T23:24:52.722Z,2.15
2023-01-17T23:27:40.679Z,1.98
2023-01-17T23:30:15.334Z,1.88
2023-01-17T23:32:48.374Z,2.75
2023-01-17T23:35:20.414Z,3.88
2023-01-17T23:38:03.514Z,3.97
2023-01-17T23:40:34.978Z,3.97
2023-01-17T23:43:21.103Z,2.50
2023-01-17T23:45:54.103Z,1.67
2023-01-17T23:48:29.144Z,4.68
2023-01-17T23:51:02.336Z,2.38
2023-01-17T23:53:32.771Z,3.60
2023-01-17T23:56:10.022Z,2.67
2023-01-17T23:58:43.216Z,2.47
